Time;durP1;ratioP1;P1;durP2;ratioP2;P2;SDS_P1;SDS_P2;PMS_P1;PMS_P2;Temp;Humidity;BMP_temperature;BMP_pressure;BME280_temperature;BME280_humidity;BME280_pressure;Samples;Min_cycle;Max_cycle;Signal;HPM_P1;HPM_P2
2021/04/12 00:00:48;;;;;;;7.93;4.55;;;;;;;6.76;62.17;97503.16;5057203;28;20036;-75
2021/04/12 00:03:19;;;;;;;9.32;5.90;;;;;;;6.89;61.58;97516.00;5096071;27;20090;-75
2021/04/12 00:05:49;;;;;;;11.32;5.60;;;;;;;6.85;61.20;97514.03;5093568;27;20031;-75
2021/04/12 00:08:21;;;;;;;9.77;6.20;;;;;;;6.76;61.91;97526.44;5088764;27;20118;-75
2021/04/12 00:10:51;;;;;;;11.95;6.10;;;;;;;6.64;61.62;97530.72;5075457;28;20058;-75
2021/04/12 00:13:37;;;;;;;12.35;6.75;;;;;;;6.56;62.75;97514.44;5064439;28;20097;-75
2021/04/12 00:16:27;;;;;;;14.30;6.65;;;;;;;6.39;63.22;97518.53;5095035;28;20028;-75
2021/04/12 00:19:03;;;;;;;11.90;6.78;;;;;;;6.82;62.59;97517.03;5070201;27;20478;-75
2021/04/12 00:21:39;;;;;;;13.00;6.85;;;;;;;6.80;61.96;97519.84;5097148;28;20785;-75
2021/04/12 00:24:17;;;;;;;13.10;6.65;;;;;;;6.56;62.29;97522.22;5049973;28;20172;-75
2021/04/12 00:26:49;;;;;;;11.52;6.93;;;;;;;6.74;61.78;97525.88;5100706;28;20035;-75
2021/04/12 00:29:19;;;;;;;13.65;7.85;;;;;;;6.81;61.78;97518.06;5078601;28;20309;-75
2021/04/12 00:31:53;;;;;;;13.80;7.82;;;;;;;6.72;61.76;97520.91;5083022;27;20569;-75
2021/04/12 00:34:43;;;;;;;14.25;8.02;;;;;;;6.64;62.16;97523.75;5109694;27;20038;-75
2021/04/12 00:37:19;;;;;;;15.05;8.25;;;;;;;6.72;61.88;97539.00;5089669;28;20467;-75
2021/04/12 00:40:19;;;;;;;14.98;8.70;;;;;;;6.55;62.63;97533.56;5122944;27;20035;-75
2021/04/12 00:43:01;;;;;;;16.83;8.52;;;;;;;6.55;62.15;97548.28;5083104;27;20458;-75
2021/04/12 00:45:37;;;;;;;17.13;8.75;;;;;;;6.71;61.72;97554.75;5073511;28;20032;-75
2021/04/12 00:48:44;;;;;;;16.90;9.15;;;;;;;6.56;61.89;97558.44;5083440;27;20027;-75
2021/04/12 00:51:18;;;;;;;;;;;;;;;6.29;63.33;97562.97;5083938;27;20035;-75
2021/04/12 00:53:57;;;;;;;18.60;9.57;;;;;;;6.47;62.11;97566.66;5120051;27;19998;-75
2021/04/12 00:56:32;;;;;;;21.02;11.07;;;;;;;6.64;60.96;97569.53;5112306;27;20042;-75
2021/04/12 00:59:21;;;;;;;19.90;9.73;;;;;;;6.59;62.17;97553.84;5074486;28;20035;-75
2021/04/12 01:01:53;;;;;;;21.42;10.43;;;;;;;6.71;62.15;97562.50;5093122;28;20043;-75
2021/04/12 01:04:36;;;;;;;20.25;10.90;;;;;;;6.60;62.35;97560.56;5079607;28;20031;-75
2021/04/12 01:07:18;;;;;;;20.63;11.02;;;;;;;6.88;61.97;97566.16;5064553;27;20023;-75
2021/04/12 01:10:07;;;;;;;21.10;11.77;;;;;;;6.49;63.25;97562.03;5092093;27;20391;-75
2021/04/12 01:12:52;;;;;;;21.27;10.80;;;;;;;6.45;62.83;97553.13;5122784;27;20030;-75
2021/04/12 01:15:47;;;;;;;21.95;11.50;;;;;;;6.47;62.62;97559.66;5106110;27;20025;-75
2021/04/12 01:18:19;;;;;;;26.70;13.60;;;;;;;6.69;63.07;97560.13;5080539;28;20028;-75
2021/04/12 01:20:56;;;;;;;22.63;11.48;;;;;;;6.63;62.91;97573.09;5105512;28;20031;-75
2021/04/12 01:24:02;;;;;;;24.75;11.65;;;;;;;6.59;62.41;97584.88;5090671;28;20452;-75
2021/04/12 01:27:05;;;;;;;22.55;10.63;;;;;;;6.56;62.53;97599.81;5089612;27;20390;-74
2021/04/12 01:29:46;;;;;;;22.73;11.40;;;;;;;6.64;62.12;97592.81;5094812;27;20124;-75
2021/04/12 01:32:49;;;;;;;24.55;12.40;;;;;;;6.55;63.51;97590.47;5100100;28;20121;-75
2021/04/12 01:35:39;;;;;;;24.80;12.85;;;;;;;6.53;63.25;97595.06;5093930;27;20024;-74
2021/04/12 01:38:22;;;;;;;24.10;12.63;;;;;;;6.59;63.47;97593.44;5094346;28;20060;-75
2021/04/12 01:41:01;;;;;;;23.10;12.18;;;;;;;6.72;62.70;97593.34;5063633;28;20043;-75
2021/04/12 01:43:34;;;;;;;23.23;12.43;;;;;;;6.83;62.89;97597.06;5083993;27;20053;-75
2021/04/12 01:46:21;;;;;;;26.50;13.18;;;;;;;6.64;63.41;97603.16;5103785;27;20584;-74
2021/04/12 01:48:54;;;;;;;24.77;12.98;;;;;;;6.87;62.85;97600.84;5077000;27;20456;-74
2021/04/12 01:51:57;;;;;;;23.13;12.80;;;;;;;6.70;63.80;97604.91;5110912;27;20114;-74
2021/04/12 01:54:30;;;;;;;20.63;11.52;;;;;;;7.08;63.44;97607.44;5088340;27;20426;-74
2021/04/12 01:57:14;;;;;;;24.17;11.68;;;;;;;6.96;62.70;97613.50;5091312;27;20551;-74
2021/04/12 02:00:07;;;;;;;21.80;11.45;;;;;;;6.94;62.69;97611.94;5084060;28;20138;-75
2021/04/12 02:02:32;;;;;;;22.02;11.30;;;;;;;7.14;61.71;97613.56;5095823;28;20036;-75
2021/04/12 02:05:22;;;;;;;23.77;11.73;;;;;;;6.74;62.36;97621.63;5125508;27;20049;-75
2021/04/12 02:07:51;;;;;;;21.75;11.93;;;;;;;7.05;62.22;97628.56;5102658;28;20038;-74
2021/04/12 02:10:54;;;;;;;20.48;11.52;;;;;;;6.76;62.82;97624.78;5078845;28;20050;-75
2021/04/12 02:13:25;;;;;;;20.58;10.70;;;;;;;7.09;62.95;97618.59;5125218;27;20031;-75
2021/04/12 02:15:54;;;;;;;21.38;11.63;;;;;;;7.06;62.20;97619.00;5089603;28;20032;-75
2021/04/12 02:18:52;;;;;;;25.00;10.95;;;;;;;6.79;61.95;97626.97;5107539;28;20389;-75
2021/04/12 02:21:20;;;;;;;20.67;11.77;;;;;;;6.92;62.01;97629.47;5072664;28;20035;-75
2021/04/12 02:23:58;;;;;;;22.75;11.73;;;;;;;6.78;62.01;97638.31;5115417;28;20028;-75
2021/04/12 02:26:50;;;;;;;21.70;10.77;;;;;;;6.66;62.17;97637.38;5093627;28;20023;-75
2021/04/12 02:29:32;;;;;;;21.27;11.35;;;;;;;6.68;62.20;97650.91;5093536;28;20019;-75
2021/04/12 02:32:03;;;;;;;22.48;10.95;;;;;;;6.80;61.97;97648.44;5114718;28;20039;-75
2021/04/12 02:34:40;;;;;;;21.60;11.02;;;;;;;6.71;61.96;97643.50;5103492;28;20039;-75
2021/04/12 02:37:27;;;;;;;19.83;10.80;;;;;;;6.65;61.99;97639.19;5070102;28;20114;-75
2021/04/12 02:40:28;;;;;;;21.35;11.70;;;;;;;6.69;61.94;97649.91;5108553;28;20076;-76
2021/04/12 02:43:23;;;;;;;19.88;10.82;;;;;;;6.56;61.63;97645.59;5076507;28;20047;-75
2021/04/12 02:46:16;;;;;;;20.67;11.48;;;;;;;6.61;61.46;97653.50;5091786;28;20027;-75
2021/04/12 02:48:57;;;;;;;19.35;10.98;;;;;;;6.53;61.85;97648.59;5086794;28;20028;-75
2021/04/12 02:51:37;;;;;;;19.48;11.38;;;;;;;6.70;61.20;97646.31;5087420;28;20031;-75
2021/04/12 02:54:45;;;;;;;21.10;10.18;;;;;;;6.58;62.28;97653.94;5083503;28;20053;-75
2021/04/12 02:57:18;;;;;;;17.13;10.20;;;;;;;6.68;61.16;97648.31;5118296;28;20047;-75
2021/04/12 03:00:01;;;;;;;17.25;10.00;;;;;;;6.48;61.93;97664.72;5074816;28;20028;-75
2021/04/12 03:02:44;;;;;;;19.38;10.65;;;;;;;6.56;61.32;97664.50;5090003;28;20577;-75
2021/04/12 03:05:28;;;;;;;19.35;10.65;;;;;;;6.85;61.22;97661.56;5120677;28;20027;-74
2021/04/12 03:08:13;;;;;;;18.27;9.80;;;;;;;6.45;61.51;97680.66;5128693;28;20046;-75
2021/04/12 03:10:46;;;;;;;16.45;9.55;;;;;;;6.70;60.64;97679.94;5105191;28;20042;-75
2021/04/12 03:13:21;;;;;;;16.42;9.40;;;;;;;6.68;61.01;97682.75;5091364;28;20066;-75
2021/04/12 03:15:59;;;;;;;19.50;10.70;;;;;;;6.52;60.77;97689.19;5108768;28;20062;-75
2021/04/12 03:19:02;;;;;;;18.13;9.65;;;;;;;6.57;61.54;97701.50;5080514;28;20077;-75
2021/04/12 03:21:46;;;;;;;18.63;10.30;;;;;;;6.81;61.35;97705.19;5088904;27;20030;-75
2021/04/12 03:24:18;;;;;;;18.92;10.43;;;;;;;6.83;60.33;97703.19;5089073;27;20023;-75
2021/04/12 03:27:09;;;;;;;18.92;10.00;;;;;;;6.45;60.94;97711.69;5090326;27;20354;-75
2021/04/12 03:30:23;;;;;;;17.52;9.45;;;;;;;6.30;61.58;97716.31;5066201;27;20086;-75
2021/04/12 03:33:15;;;;;;;16.27;9.25;;;;;;;6.35;61.81;97712.13;5069787;27;20062;-75
2021/04/12 03:35:52;;;;;;;16.55;9.05;;;;;;;6.38;61.04;97721.28;5096803;27;20401;-75
2021/04/12 03:38:32;;;;;;;16.98;9.48;;;;;;;6.66;60.94;97722.78;5094648;27;20382;-75
2021/04/12 03:41:11;;;;;;;15.38;9.32;;;;;;;6.34;60.69;97725.25;5105053;27;20393;-75
2021/04/12 03:44:01;;;;;;;14.13;8.77;;;;;;;6.30;60.97;97735.22;5097022;27;20131;-75
2021/04/12 03:47:00;;;;;;;15.98;9.15;;;;;;;6.28;61.31;97729.44;5031897;27;20051;-74
2021/04/12 03:49:59;;;;;;;16.50;9.23;;;;;;;6.35;61.73;97737.97;5110209;28;20046;-75
2021/04/12 03:53:02;;;;;;;16.33;9.43;;;;;;;6.37;61.48;97736.00;5097719;27;20595;-75
2021/04/12 03:55:34;;;;;;;14.25;8.18;;;;;;;6.46;59.51;97740.94;5092873;28;20063;-75
2021/04/12 03:58:26;;;;;;;17.63;9.80;;;;;;;6.29;60.09;97741.41;5098482;27;20093;-74
2021/04/12 04:01:10;;;;;;;15.95;10.43;;;;;;;6.41;60.22;97749.31;5090325;27;20894;-74
2021/04/12 04:04:03;;;;;;;17.38;10.30;;;;;;;6.26;60.39;97754.72;5091715;28;20032;-74
2021/04/12 04:07:21;;;;;;;18.65;9.88;;;;;;;6.17;61.88;97750.78;5058160;27;20035;-74
2021/04/12 04:10:16;;;;;;;17.45;9.63;;;;;;;6.23;61.18;97756.91;5086655;27;20047;-75
2021/04/12 04:12:53;;;;;;;18.83;10.48;;;;;;;6.50;61.69;97749.91;5096738;28;20039;-75
2021/04/12 04:15:55;;;;;;;17.63;9.52;;;;;;;6.16;61.16;97755.13;5093812;27;20063;-74
2021/04/12 04:18:38;;;;;;;17.50;9.80;;;;;;;6.19;61.70;97762.50;5105355;28;20063;-74
2021/04/12 04:21:03;;;;;;;19.90;9.93;;;;;;;6.49;61.21;97764.59;5071040;27;20070;-74
2021/04/12 04:23:53;;;;;;;16.80;9.38;;;;;;;6.13;61.42;97768.44;5091966;27;20091;-74
2021/04/12 04:26:31;;;;;;;15.57;8.98;;;;;;;6.45;61.42;97778.16;5108047;27;20370;-75
2021/04/12 04:29:41;;;;;;;19.92;9.60;;;;;;;6.05;62.27;97768.69;5124357;27;20045;-75
2021/04/12 04:32:35;;;;;;;17.70;10.35;;;;;;;6.15;62.05;97779.41;5112473;27;20058;-74
2021/04/12 04:35:31;;;;;;;18.75;9.20;;;;;;;6.19;61.14;97770.25;5104365;27;20068;-74
2021/04/12 04:38:01;;;;;;;;;;;;;;;5.90;61.93;97780.97;5089912;28;20032;-75
2021/04/12 04:40:35;;;;;;;17.90;9.43;;;;;;;6.41;60.96;97784.72;5105923;28;19943;-75
2021/04/12 04:43:38;;;;;;;16.30;8.75;;;;;;;6.18;60.75;97794.50;5094903;28;20536;-75
2021/04/12 04:46:29;;;;;;;20.17;9.40;;;;;;;6.24;60.81;97792.09;5105190;28;20024;-75
2021/04/12 04:49:17;;;;;;;17.17;9.02;;;;;;;6.35;60.93;97792.28;5091904;28;20034;-75
2021/04/12 04:51:43;;;;;;;18.00;9.88;;;;;;;6.39;60.31;97792.69;5085878;27;20476;-75
2021/04/12 04:54:33;;;;;;;17.70;8.95;;;;;;;6.10;60.48;97807.66;5088942;27;20103;-75
2021/04/12 04:57:14;;;;;;;16.38;9.00;;;;;;;6.05;60.72;97801.47;5073181;28;20416;-75
2021/04/12 04:59:57;;;;;;;17.50;9.30;;;;;;;6.04;60.40;97808.44;5109449;27;20110;-75
2021/04/12 05:02:48;;;;;;;16.88;8.52;;;;;;;6.13;59.41;97812.41;5112537;27;20070;-75
2021/04/12 05:05:22;;;;;;;14.55;8.73;;;;;;;6.15;60.30;97812.22;5107705;28;20069;-74
2021/04/12 05:08:02;;;;;;;17.37;9.50;;;;;;;6.11;60.51;97816.97;5107802;28;20024;-75
2021/04/12 05:10:40;;;;;;;15.90;8.55;;;;;;;6.08;60.23;97814.78;5077368;28;20031;-75
2021/04/12 05:13:30;;;;;;;16.77;8.55;;;;;;;6.00;60.58;97817.59;5104418;27;20031;-75
2021/04/12 05:16:20;;;;;;;17.75;9.45;;;;;;;6.05;60.10;97828.13;5104640;28;20487;-76
2021/04/12 05:19:05;;;;;;;16.10;8.98;;;;;;;6.11;60.11;97835.09;5108096;27;20241;-75
2021/04/12 05:22:05;;;;;;;15.80;9.63;;;;;;;6.14;59.67;97839.06;5076890;27;20030;-75
2021/04/12 05:24:39;;;;;;;18.70;9.82;;;;;;;6.30;59.73;97835.28;5110457;27;20029;-74
2021/04/12 05:27:26;;;;;;;14.38;8.25;;;;;;;6.22;60.02;97851.00;5094422;27;20464;-75
2021/04/12 05:30:09;;;;;;;14.45;7.93;;;;;;;6.14;60.21;97860.53;5094410;27;20027;-75
2021/04/12 05:33:05;;;;;;;15.73;8.20;;;;;;;6.08;60.41;97863.91;5111729;27;20027;-75
2021/04/12 05:35:53;;;;;;;14.73;7.95;;;;;;;6.16;60.37;97871.47;5111656;27;20496;-74
2021/04/12 05:38:40;;;;;;;15.02;9.00;;;;;;;6.45;60.57;97877.25;5094431;27;20127;-74
2021/04/12 05:41:24;;;;;;;13.05;7.18;;;;;;;6.14;60.40;97881.22;5117080;27;20500;-75
2021/04/12 05:44:05;;;;;;;13.35;7.90;;;;;;;6.19;60.06;97885.81;5128539;27;20088;-75
2021/04/12 05:46:52;;;;;;;12.35;7.43;;;;;;;6.19;59.48;97884.00;5074529;27;20548;-74
2021/04/12 05:49:20;;;;;;;14.00;7.93;;;;;;;6.48;59.96;97900.13;5093946;27;20034;-74
2021/04/12 05:52:01;;;;;;;13.90;7.60;;;;;;;6.55;58.59;97900.13;5111094;27;20045;-75
2021/04/12 05:54:46;;;;;;;15.88;7.65;;;;;;;6.21;59.74;97901.13;5111139;27;20035;-75
2021/04/12 05:57:26;;;;;;;12.88;7.20;;;;;;;6.28;58.66;97912.28;5077071;27;20023;-75
2021/04/12 06:00:10;;;;;;;13.55;7.38;;;;;;;6.28;59.66;97907.09;5104220;27;20019;-75
2021/04/12 06:03:04;;;;;;;11.13;7.03;;;;;;;6.30;58.86;97913.66;5076063;28;20067;-75
2021/04/12 06:05:37;;;;;;;11.85;7.22;;;;;;;6.43;58.78;97906.91;5091420;27;20035;-75
2021/04/12 06:08:44;;;;;;;14.15;7.75;;;;;;;6.21;58.96;97912.25;5093768;27;20031;-75
2021/04/12 06:11:26;;;;;;;11.40;6.30;;;;;;;6.35;58.51;97924.19;5063231;27;20031;-75
2021/04/12 06:14:16;;;;;;;10.55;6.53;;;;;;;6.41;58.19;97925.22;5110378;27;20053;-75
2021/04/12 06:17:01;;;;;;;12.88;6.65;;;;;;;6.36;58.64;97918.03;5087312;28;20055;-75
2021/04/12 06:20:04;;;;;;;11.95;5.47;;;;;;;6.37;58.71;97926.59;5074560;28;20076;-75
2021/04/12 06:22:49;;;;;;;8.98;5.18;;;;;;;6.78;57.92;97922.22;5111372;28;20146;-75
2021/04/12 06:25:48;;;;;;;9.50;5.70;;;;;;;6.51;57.67;97928.19;5102027;28;20123;-75
2021/04/12 06:28:36;;;;;;;9.43;5.03;;;;;;;6.73;57.67;97936.56;5110714;28;20076;-75
2021/04/12 06:31:22;;;;;;;11.02;6.28;;;;;;;6.65;58.01;97930.75;5129207;28;20031;-75
2021/04/12 06:34:09;;;;;;;10.35;5.68;;;;;;;6.85;58.16;97933.34;5093322;28;20406;-75
2021/04/12 06:36:46;;;;;;;9.57;5.13;;;;;;;6.70;57.10;97936.13;5111327;28;20035;-75
2021/04/12 06:39:27;;;;;;;10.02;6.15;;;;;;;6.89;58.86;97935.34;5076810;28;20038;-75
2021/04/12 06:42:05;;;;;;;9.10;5.85;;;;;;;6.54;58.98;97950.28;5128080;28;20031;-76
2021/04/12 06:44:59;;;;;;;9.95;5.75;;;;;;;6.60;58.24;97946.09;5103036;28;20035;-75
2021/04/12 06:47:43;;;;;;;10.68;6.00;;;;;;;7.08;57.40;97958.81;5129025;28;20118;-75
2021/04/12 06:50:14;;;;;;;9.23;5.32;;;;;;;6.73;56.49;97965.03;5090069;28;20035;-75
2021/04/12 06:53:30;;;;;;;10.00;5.57;;;;;;;6.84;57.10;97963.63;5104771;28;20449;-76
2021/04/12 06:55:56;;;;;;;9.77;5.85;;;;;;;6.96;59.73;97969.00;5043190;27;20099;-75
2021/04/12 06:58:33;;;;;;;10.07;6.63;;;;;;;6.97;57.84;97978.31;5131981;27;20114;-75
2021/04/12 07:01:02;;;;;;;9.32;4.95;;;;;;;7.19;58.06;97981.47;5088569;28;20142;-76
2021/04/12 07:03:45;;;;;;;10.07;5.70;;;;;;;7.39;56.47;97981.44;5102389;28;20031;-75
2021/04/12 07:06:50;;;;;;;11.30;5.85;;;;;;;6.99;56.64;97985.91;5127255;27;20046;-75
2021/04/12 07:09:19;;;;;;;10.00;5.50;;;;;;;7.24;57.99;97993.84;5124337;27;20100;-75
2021/04/12 07:11:53;;;;;;;8.75;4.88;;;;;;;7.21;56.25;97989.84;5103127;27;20054;-76
2021/04/12 07:14:38;;;;;;;;;;;;;;;6.82;56.84;97995.84;5108223;27;20075;-75
2021/04/12 07:17:31;;;;;;;6.97;4.60;;;;;;;7.15;56.67;98001.03;5114404;27;19907;-75
2021/04/12 07:20:19;;;;;;;8.27;5.15;;;;;;;7.27;55.73;97996.81;5112262;27;20070;-75
2021/04/12 07:23:24;;;;;;;6.75;4.03;;;;;;;7.38;54.67;98000.56;5084339;27;20062;-75
2021/04/12 07:26:41;;;;;;;9.27;5.30;;;;;;;7.20;58.00;98003.81;5096312;27;20152;-75
2021/04/12 07:29:21;;;;;;;8.68;5.68;;;;;;;7.54;54.22;97996.75;5059968;28;20039;-76
2021/04/12 07:32:06;;;;;;;8.15;5.20;;;;;;;7.39;57.00;98011.75;5112830;27;20028;-76
2021/04/12 07:34:56;;;;;;;7.73;4.67;;;;;;;7.64;54.48;98012.69;5109340;28;20575;-76
2021/04/12 07:37:49;;;;;;;6.60;4.32;;;;;;;7.63;53.36;98007.69;5123506;27;20689;-75
2021/04/12 07:40:48;;;;;;;6.93;4.38;;;;;;;7.64;54.23;98015.28;5111907;27;20024;-75
2021/04/12 07:43:36;;;;;;;8.18;4.97;;;;;;;7.59;55.08;98032.41;5106353;27;20039;-75
2021/04/12 07:46:19;;;;;;;6.78;4.60;;;;;;;7.55;54.15;98037.22;5093271;28;20042;-75
2021/04/12 07:49:16;;;;;;;8.77;4.82;;;;;;;7.31;55.86;98034.25;5081472;27;20490;-75
2021/04/12 07:51:57;;;;;;;8.80;4.30;;;;;;;7.26;54.34;98033.28;5109795;28;20043;-75
2021/04/12 07:54:44;;;;;;;6.75;4.45;;;;;;;7.09;54.30;98038.06;5109344;28;20048;-75
2021/04/12 07:57:42;;;;;;;6.55;4.20;;;;;;;7.43;54.16;98038.84;5109250;27;20035;-75
2021/04/12 08:00:35;;;;;;;9.82;4.82;;;;;;;7.58;55.33;98042.00;5095412;27;20111;-75
2021/04/12 08:03:09;;;;;;;5.65;4.00;;;;;;;8.02;53.00;98037.06;5056640;28;20036;-75
2021/04/12 08:06:28;;;;;;;9.40;5.30;;;;;;;7.65;55.93;98052.34;5087848;27;20405;-76
2021/04/12 08:08:53;;;;;;;7.95;4.60;;;;;;;8.17;53.53;98052.34;5003437;28;20038;-76
2021/04/12 08:11:42;;;;;;;7.07;4.55;;;;;;;7.90;50.80;98049.88;5080716;27;20441;-75
2021/04/12 08:14:31;;;;;;;6.20;3.83;;;;;;;7.94;51.67;98056.25;5104776;28;20102;-75
2021/04/12 08:17:26;;;;;;;6.45;4.03;;;;;;;7.60;52.33;98065.91;5076705;27;20410;-76
2021/04/12 08:20:22;;;;;;;8.85;3.72;;;;;;;8.09;51.65;98074.16;5086278;28;20062;-76
2021/04/12 08:23:25;;;;;;;6.20;3.53;;;;;;;8.07;51.95;98073.53;5101724;27;20032;-76
2021/04/12 08:26:29;;;;;;;6.60;4.10;;;;;;;8.09;52.43;98075.94;5089939;27;20028;-76
2021/04/12 08:29:03;;;;;;;7.60;4.30;;;;;;;8.25;52.62;98072.88;5088490;28;20031;-76
2021/04/12 08:31:46;;;;;;;6.30;3.30;;;;;;;9.30;49.98;98074.22;5104783;28;20031;-76
2021/04/12 08:34:55;;;;;;;4.13;2.13;;;;;;;9.08;51.06;98077.19;5094571;27;20575;-76
2021/04/12 08:37:45;;;;;;;2.85;1.80;;;;;;;9.51;46.65;98070.41;5098427;27;20054;-76
2021/04/12 08:40:48;;;;;;;4.72;2.17;;;;;;;9.59;47.18;98074.56;5095657;27;20032;-75
2021/04/12 08:43:49;;;;;;;2.85;2.10;;;;;;;9.85;47.39;98081.28;5121431;27;20080;-75
2021/04/12 08:46:34;;;;;;;3.75;1.63;;;;;;;10.11;43.86;98082.81;5081854;27;20167;-76
2021/04/12 08:49:14;;;;;;;2.03;1.43;;;;;;;10.21;42.25;98083.06;5078431;27;20024;-75
2021/04/12 08:51:57;;;;;;;18.73;7.30;;;;;;;10.10;42.03;98078.59;5084932;27;20113;-75
2021/04/12 08:54:43;;;;;;;7.13;3.55;;;;;;;10.17;43.41;98088.94;5088364;27;20049;-75
2021/04/12 08:57:11;;;;;;;6.53;2.65;;;;;;;9.70;46.04;98097.25;5099787;27;20542;-76
2021/04/12 09:00:16;;;;;;;3.42;2.30;;;;;;;9.25;46.34;98102.63;5095414;27;20028;-76
2021/04/12 09:02:57;;;;;;;3.53;2.75;;;;;;;8.98;48.04;98097.66;5114813;27;20028;-75
2021/04/12 09:05:33;;;;;;;4.38;2.50;;;;;;;9.50;47.74;98094.84;5082272;27;20023;-75
2021/04/12 09:08:23;;;;;;;4.75;2.38;;;;;;;10.02;49.46;98094.50;5110717;27;20049;-75
2021/04/12 09:11:15;;;;;;;2.47;1.83;;;;;;;10.36;44.74;98092.31;5068374;28;20030;-76
2021/04/12 09:13:52;;;;;;;2.90;1.83;;;;;;;10.35;43.84;98101.13;5117095;27;20023;-74
2021/04/12 09:16:26;;;;;;;3.28;1.80;;;;;;;10.47;43.34;98105.41;5098725;27;20418;-75
2021/04/12 09:18:59;;;;;;;3.35;2.50;;;;;;;10.23;45.58;98104.47;5087430;27;20023;-76
2021/04/12 09:21:53;;;;;;;3.13;1.73;;;;;;;9.85;43.32;98104.69;5065487;27;20163;-75
2021/04/12 09:24:40;;;;;;;4.38;2.88;;;;;;;9.88;45.14;98107.66;5110646;27;20030;-76
2021/04/12 09:27:09;;;;;;;3.45;2.05;;;;;;;9.96;46.38;98103.97;5073726;28;20024;-75
2021/04/12 09:29:53;;;;;;;3.80;1.38;;;;;;;10.44;43.10;98107.66;5108446;27;20028;-75
2021/04/12 09:32:39;;;;;;;3.33;1.50;;;;;;;10.48;39.90;98101.75;5102055;27;20055;-74
2021/04/12 09:35:35;;;;;;;3.22;1.20;;;;;;;10.31;39.50;98113.78;5089690;27;20336;-75
2021/04/12 09:38:32;;;;;;;3.55;1.33;;;;;;;9.92;40.14;98114.03;5107342;27;20051;-75
2021/04/12 09:41:11;;;;;;;2.55;1.60;;;;;;;9.91;40.46;98107.22;5108611;27;20497;-75
2021/04/12 09:43:46;;;;;;;3.53;2.22;;;;;;;9.64;44.10;98117.09;5076628;27;20667;-75
2021/04/12 09:46:17;;;;;;;1.73;1.60;;;;;;;10.03;42.54;98116.91;5077748;28;20447;-75
2021/04/12 09:49:07;;;;;;;2.63;2.00;;;;;;;9.84;42.83;98116.13;5091166;27;20084;-75
2021/04/12 09:51:35;;;;;;;4.00;1.65;;;;;;;10.38;44.06;98111.13;5097062;27;20031;-75
2021/04/12 09:54:22;;;;;;;2.28;1.45;;;;;;;11.09;41.74;98113.94;5081924;27;20033;-74
2021/04/12 09:57:19;;;;;;;2.83;1.48;;;;;;;11.59;40.47;98108.31;5105979;27;20039;-75
2021/04/12 10:00:03;;;;;;;1.15;0.70;;;;;;;12.39;39.32;98103.44;5126495;27;20106;-75
2021/04/12 10:03:04;;;;;;;0.65;0.50;;;;;;;12.44;33.82;98101.72;5087219;28;20356;-74
2021/04/12 10:05:57;;;;;;;2.25;0.50;;;;;;;12.91;32.53;98106.72;5072407;27;20086;-75
2021/04/12 10:08:36;;;;;;;1.50;0.55;;;;;;;12.78;33.61;98103.59;5075977;27;20668;-75
2021/04/12 10:11:13;;;;;;;0.50;0.30;;;;;;;12.91;33.93;98111.16;5086865;27;20035;-75
2021/04/12 10:13:57;;;;;;;2.58;0.93;;;;;;;12.66;34.75;98117.53;5099886;28;20070;-75
2021/04/12 10:16:26;;;;;;;1.83;0.60;;;;;;;11.97;35.45;98112.28;5108421;27;20231;-76
2021/04/12 10:19:02;;;;;;;1.13;0.50;;;;;;;11.55;37.75;98112.41;5060415;28;20043;-76
2021/04/12 10:21:40;;;;;;;1.08;0.40;;;;;;;11.22;34.98;98111.13;5090464;28;20031;-75
2021/04/12 10:24:22;;;;;;;0.47;0.45;;;;;;;11.70;34.38;98115.34;5079104;28;20023;-76
2021/04/12 10:26:57;;;;;;;2.05;0.73;;;;;;;11.89;37.12;98104.78;5090620;28;20441;-76
2021/04/12 10:29:37;;;;;;;1.83;0.80;;;;;;;12.50;37.56;98111.22;5120851;28;20035;-75
2021/04/12 10:32:16;;;;;;;1.67;0.50;;;;;;;11.73;36.68;98107.06;5127742;27;20039;-76
2021/04/12 10:34:48;;;;;;;2.20;0.57;;;;;;;11.63;35.04;98106.84;5082783;28;20542;-75
2021/04/12 10:37:32;;;;;;;1.00;0.70;;;;;;;11.73;33.60;98107.06;5097024;28;20479;-75
2021/04/12 10:40:08;;;;;;;2.75;0.55;;;;;;;11.73;34.01;98099.22;5123380;27;20505;-75
2021/04/12 10:42:48;;;;;;;1.20;0.50;;;;;;;11.62;34.16;98110.50;5091895;28;20078;-75
2021/04/12 10:45:20;;;;;;;1.05;0.43;;;;;;;11.29;34.52;98104.00;5109645;28;20066;-74
2021/04/12 10:47:54;;;;;;;0.70;0.47;;;;;;;10.60;34.89;98108.84;5108953;28;20309;-75
2021/04/12 10:50:30;;;;;;;0.75;0.57;;;;;;;10.42;35.66;98118.28;5084863;28;20098;-75
2021/04/12 10:53:23;;;;;;;2.50;1.10;;;;;;;10.13;35.02;98107.56;5107264;27;20023;-75
2021/04/12 10:56:03;;;;;;;1.05;0.55;;;;;;;10.02;37.12;98110.09;5127704;27;20031;-75
2021/04/12 10:58:51;;;;;;;3.63;0.85;;;;;;;10.23;35.55;98106.25;5088559;27;20011;-74
2021/04/12 11:01:45;;;;;;;1.05;0.73;;;;;;;10.23;36.65;98104.47;5095263;27;20066;-75
2021/04/12 11:04:49;;;;;;;0.65;0.50;;;;;;;10.26;35.05;98109.25;5080953;27;20099;-75
2021/04/12 11:07:51;;;;;;;1.25;0.63;;;;;;;10.16;34.21;98101.16;5131121;27;20534;-75
2021/04/12 11:10:19;;;;;;;1.20;0.77;;;;;;;11.10;34.89;98098.09;5126241;27;20115;-74
2021/04/12 11:12:50;;;;;;;1.55;0.60;;;;;;;11.60;32.92;98095.06;5089204;27;20066;-74
2021/04/12 11:15:24;;;;;;;1.92;0.77;;;;;;;11.62;37.76;98094.84;5078289;27;20114;-75
2021/04/12 11:18:09;;;;;;;1.38;0.85;;;;;;;12.04;33.52;98092.06;5092304;27;20512;-75
2021/04/12 11:20:50;;;;;;;0.57;0.52;;;;;;;12.08;35.05;98098.44;5093491;28;20043;-74
2021/04/12 11:23:37;;;;;;;1.63;0.40;;;;;;;11.95;33.51;98101.28;5108397;27;20124;-75
2021/04/12 11:26:30;;;;;;;1.08;0.70;;;;;;;11.43;33.96;98096.78;5077041;27;20095;-74
2021/04/12 11:28:58;;;;;;;1.63;0.55;;;;;;;11.38;34.85;98096.66;5080649;28;20406;-74
2021/04/12 11:31:48;;;;;;;0.60;0.60;;;;;;;10.94;34.49;98101.34;5091749;27;20031;-75
2021/04/12 11:34:26;;;;;;;1.90;0.70;;;;;;;11.25;34.38;98100.25;5087379;27;20347;-75
2021/04/12 11:37:18;;;;;;;0.60;0.40;;;;;;;11.40;32.56;98097.22;5088828;28;20051;-74
2021/04/12 11:40:10;;;;;;;1.15;1.02;;;;;;;11.08;35.62;98105.34;5102541;27;20578;-75
2021/04/12 11:42:38;;;;;;;1.65;0.70;;;;;;;11.02;35.72;98106.25;5095962;27;20051;-75
2021/04/12 11:45:10;;;;;;;3.60;1.60;;;;;;;10.34;38.22;98112.59;5095620;27;20482;-75
2021/04/12 11:48:13;;;;;;;1.88;0.88;;;;;;;10.15;36.48;98109.19;5096166;27;20065;-75
2021/04/12 11:50:53;;;;;;;6.72;2.72;;;;;;;10.72;37.37;98104.47;5110382;27;20067;-75
2021/04/12 11:53:27;;;;;;;31.95;13.25;;;;;;;10.77;38.88;98114.22;5108084;27;20035;-75
2021/04/12 11:56:02;;;;;;;2.35;1.40;;;;;;;11.02;35.99;98111.47;5100412;27;20481;-74
2021/04/12 11:58:49;;;;;;;1.38;0.80;;;;;;;10.82;36.77;98109.13;5070234;28;20379;-75
2021/04/12 12:01:28;;;;;;;2.25;1.15;;;;;;;10.76;35.51;98118.66;5102125;27;20028;-75
2021/04/12 12:04:13;;;;;;;2.30;0.93;;;;;;;10.80;35.30;98114.56;5088715;27;20038;-74
2021/04/12 12:06:50;;;;;;;1.73;0.90;;;;;;;10.22;35.77;98120.31;5095297;27;20053;-74
2021/04/12 12:09:39;;;;;;;2.08;0.80;;;;;;;10.77;35.21;98119.44;5092580;27;20024;-74
2021/04/12 12:12:20;;;;;;;1.63;0.90;;;;;;;11.29;34.83;98113.63;5106121;27;20043;-74
2021/04/12 12:15:13;;;;;;;1.15;0.80;;;;;;;11.43;33.70;98123.63;5109285;28;20046;-74
2021/04/12 12:17:44;;;;;;;1.65;0.80;;;;;;;11.65;33.27;98120.44;5112599;27;20524;-75
2021/04/12 12:20:09;;;;;;;1.23;0.68;;;;;;;11.77;32.96;98121.25;5076265;27;20023;-75
2021/04/12 12:22:58;;;;;;;1.17;0.77;;;;;;;11.66;34.22;98126.47;5110843;27;20031;-75
2021/04/12 12:25:47;;;;;;;2.20;0.90;;;;;;;12.00;33.39;98106.63;5108971;28;20080;-75
2021/04/12 12:28:28;;;;;;;1.95;1.00;;;;;;;12.49;30.80;98106.22;5084007;27;20054;-75
2021/04/12 12:31:31;;;;;;;1.60;1.20;;;;;;;12.65;29.54;98109.94;5078364;27;20482;-75
2021/04/12 12:34:24;;;;;;;2.28;0.80;;;;;;;11.50;28.83;98096.63;5108881;27;20111;-75
2021/04/12 12:37:13;;;;;;;1.00;0.65;;;;;;;11.70;28.76;98104.13;5036282;27;20043;-74
2021/04/12 12:39:46;;;;;;;1.30;0.70;;;;;;;11.65;32.02;98102.19;5090819;27;20043;-74
2021/04/12 12:42:21;;;;;;;1.13;0.85;;;;;;;11.76;30.53;98105.81;5110483;27;20432;-74
2021/04/12 12:44:47;;;;;;;1.20;0.80;;;;;;;11.67;31.63;98113.22;5095342;27;20026;-75
2021/04/12 12:47:16;;;;;;;0.90;0.70;;;;;;;11.29;33.93;98114.44;5091101;27;20027;-74
2021/04/12 12:49:49;;;;;;;3.80;1.42;;;;;;;10.74;35.07;98114.66;5077896;27;20034;-76
2021/04/12 12:52:25;;;;;;;1.40;0.80;;;;;;;10.70;34.63;98123.94;5111529;27;20038;-75
2021/04/12 12:54:53;;;;;;;2.88;1.42;;;;;;;10.39;35.73;98120.53;5093794;27;20235;-76